Time;durP1;ratioP1;P1;durP2;ratioP2;P2;SDS_P1;SDS_P2;PMS_P1;PMS_P2;Temp;Humidity;BMP_temperature;BMP_pressure;BME280_temperature;BME280_humidity;BME280_pressure;Samples;Min_cycle;Max_cycle;Signal;HPM_P1;HPM_P2
2021/09/12 00:02:26;;;;;;;24.93;21.27;;;16.00;1.00;16.80;100780.00;;;;5011376;28;20469;-85
2021/09/12 00:04:55;;;;;;;22.73;20.33;;;15.90;1.00;16.80;100703.00;;;;5032946;28;20463;-85
2021/09/12 00:07:23;;;;;;;25.47;22.77;;;15.90;1.00;16.70;100765.00;;;;5006349;28;20616;-84
2021/09/12 00:09:52;;;;;;;23.40;20.00;;;15.80;1.00;16.70;100760.00;;;;5002182;28;20485;-84
2021/09/12 00:12:20;;;;;;;23.47;20.97;;;15.80;1.00;16.70;100741.00;;;;5008495;28;20485;-85
2021/09/12 00:14:49;;;;;;;22.93;19.90;;;15.80;1.00;16.70;100774.00;;;;5003172;28;20450;-85
2021/09/12 00:17:19;;;;;;;20.87;18.77;;;15.70;1.00;16.60;100777.00;;;;5001748;28;20557;-85
2021/09/12 00:19:47;;;;;;;31.50;18.10;;;15.70;1.00;16.60;100770.00;;;;5030635;28;20459;-85
2021/09/12 00:22:16;;;;;;;20.50;18.43;;;15.70;1.00;16.60;100776.00;;;;5000843;28;20513;-86
2021/09/12 00:24:44;;;;;;;23.33;17.03;;;15.70;1.00;16.50;100774.00;;;;5018188;28;20553;-86
2021/09/12 00:27:12;;;;;;;22.40;17.50;;;15.70;1.00;16.50;100743.00;;;;5001519;28;20565;-87
2021/09/12 00:29:41;;;;;;;22.37;18.77;;;15.60;1.00;16.50;100773.00;;;;5018551;28;20498;-86
2021/09/12 00:32:09;;;;;;;20.00;16.20;;;15.60;1.00;16.50;100765.00;;;;5006749;28;20439;-84
2021/09/12 00:34:39;;;;;;;17.97;15.70;;;15.60;1.00;16.40;100773.00;;;;5002713;28;20997;-83
2021/09/12 00:37:08;;;;;;;18.60;16.60;;;15.50;1.00;16.40;100772.00;;;;5001732;28;20450;-85
2021/09/12 00:39:36;;;;;;;19.20;15.27;;;15.60;1.00;16.40;100698.00;;;;5019248;28;20466;-86
2021/09/12 00:42:05;;;;;;;15.70;14.13;;;15.50;1.00;16.40;100747.00;;;;5031637;28;20478;-84
2021/09/12 00:44:33;;;;;;;16.97;15.03;;;15.50;1.00;16.40;100755.00;;;;4991444;28;20460;-86
2021/09/12 00:47:10;;;;;;;19.27;16.70;;;15.60;1.00;16.30;100747.00;;;;4991812;28;20847;-86
2021/09/12 00:49:42;;;;;;;18.57;16.67;;;15.60;1.00;16.40;100706.00;;;;4989430;28;20490;-84
2021/09/12 00:52:13;;;;;;;17.10;15.50;;;15.60;1.00;16.40;100667.00;;;;5002647;28;20645;-84
2021/09/12 00:54:42;;;;;;;17.33;15.53;;;15.50;1.00;16.40;100759.00;;;;5011091;28;20443;-85
2021/09/12 00:57:13;;;;;;;20.37;16.40;;;15.50;1.00;16.40;100760.00;;;;5014543;28;20585;-82
2021/09/12 00:59:44;;;;;;;19.13;17.03;;;15.50;1.00;16.40;100766.00;;;;5032119;28;20550;-84
2021/09/12 01:02:13;;;;;;;20.00;17.07;;;15.50;1.00;16.30;100759.00;;;;5014466;28;20471;-85
2021/09/12 01:04:43;;;;;;;18.43;16.53;;;15.40;1.00;16.40;100750.00;;;;5012453;28;20458;-87
2021/09/12 01:07:12;;;;;;;19.77;17.13;;;15.40;1.00;16.40;100718.00;;;;5010494;28;20498;-83
2021/09/12 01:09:41;;;;;;;17.87;16.07;;;15.50;1.00;16.40;100704.00;;;;5028803;28;20455;-83
2021/09/12 01:12:11;;;;;;;17.93;16.07;;;15.40;1.00;16.40;100757.00;;;;5003900;28;20462;-84
2021/09/12 01:14:40;;;;;;;20.20;16.87;;;15.50;1.00;16.50;100762.00;;;;5005080;28;20526;-85
2021/09/12 01:17:08;;;;;;;18.60;16.63;;;15.50;1.00;16.50;100774.00;;;;5015111;28;20479;-83
2021/09/12 01:19:38;;;;;;;15.87;14.33;;;15.50;1.00;16.60;100766.00;;;;5032316;28;20795;-85
2021/09/12 01:22:08;;;;;;;17.07;14.80;;;15.70;1.00;16.60;100737.00;;;;5002862;28;20569;-84
2021/09/12 01:24:38;;;;;;;20.03;15.20;;;15.60;1.00;16.70;100769.00;;;;5000373;28;20462;-86
2021/09/12 01:27:07;;;;;;;19.50;14.40;;;15.80;1.00;16.70;100741.00;;;;4997964;28;20479;-85
2021/09/12 01:29:36;;;;;;;19.80;13.30;;;15.70;1.00;16.70;100763.00;;;;5003413;28;20534;-84
2021/09/12 01:32:05;;;;;;;17.20;15.50;;;15.70;1.00;16.80;100733.00;;;;4997223;28;20461;-84
2021/09/12 01:34:34;;;;;;;19.60;16.07;;;15.80;1.00;16.80;100761.00;;;;4996064;28;20647;-85
2021/09/12 01:37:04;;;;;;;15.50;13.70;;;15.70;1.00;16.80;100766.00;;;;5018262;28;20518;-85
2021/09/12 01:39:32;;;;;;;16.40;14.77;;;15.80;1.00;16.80;100763.00;;;;4984333;28;20454;-85
2021/09/12 01:42:04;;;;;;;16.10;13.40;;;15.90;1.00;16.90;100769.00;;;;4999441;28;20558;-86
2021/09/12 01:44:34;;;;;;;15.47;13.87;;;16.00;1.00;16.90;100768.00;;;;5007246;28;20552;-86
2021/09/12 01:47:02;;;;;;;16.20;13.90;;;16.00;1.00;17.00;100754.00;;;;5009278;28;20562;-86
2021/09/12 01:49:30;;;;;;;15.93;12.10;;;16.00;1.00;17.00;100757.00;;;;4999107;28;20885;-85
2021/09/12 01:51:59;;;;;;;15.30;12.80;;;16.00;1.00;17.00;100752.00;;;;4999990;28;21011;-86
2021/09/12 01:54:27;;;;;;;15.33;13.80;;;16.10;1.00;17.00;100749.00;;;;5001760;28;20509;-85
2021/09/12 01:56:56;;;;;;;17.50;13.37;;;16.20;1.00;17.00;100753.00;;;;4999928;28;20510;-85
2021/09/12 01:59:25;;;;;;;16.00;14.33;;;16.10;1.00;17.00;100738.00;;;;4993005;28;20451;-84
2021/09/12 02:01:54;;;;;;;16.77;14.23;;;16.10;1.00;17.00;100746.00;;;;5004808;28;20465;-85
2021/09/12 02:04:23;;;;;;;14.77;12.33;;;16.10;1.00;16.90;100738.00;;;;4999470;28;20852;-83
2021/09/12 02:06:51;;;;;;;21.17;13.87;;;16.10;1.00;17.10;100732.00;;;;5000336;28;20549;-84
2021/09/12 02:09:19;;;;;;;21.27;13.63;;;16.10;1.00;17.00;100753.00;;;;5004707;28;20514;-84
2021/09/12 02:11:48;;;;;;;17.73;15.17;;;16.10;1.00;17.00;100658.00;;;;5012462;28;20470;-86
2021/09/12 02:14:16;;;;;;;14.87;13.37;;;16.10;1.00;17.00;100655.00;;;;5017003;28;20494;-85
2021/09/12 02:16:46;;;;;;;15.37;12.93;;;16.10;1.00;17.00;100762.00;;;;5017916;28;20487;-84
2021/09/12 02:19:14;;;;;;;13.93;12.00;;;16.10;1.00;17.00;100752.00;;;;4999311;28;20483;-86
2021/09/12 02:21:42;;;;;;;15.53;12.67;;;16.10;1.00;17.00;100751.00;;;;5005915;28;20521;-86
2021/09/12 02:24:11;;;;;;;15.97;12.20;;;16.10;1.00;17.00;100756.00;;;;5013246;28;20526;-83
2021/09/12 02:26:39;;;;;;;18.93;12.63;;;16.10;1.00;17.10;100761.00;;;;5016056;28;20481;-83
2021/09/12 02:29:08;;;;;;;15.67;12.83;;;16.10;1.00;17.10;100732.00;;;;5006725;28;20451;-85
2021/09/12 02:31:36;;;;;;;14.70;12.00;;;16.10;1.00;17.00;100668.00;;;;5012222;28;20438;-83
2021/09/12 02:34:06;;;;;;;15.60;11.00;;;16.10;1.00;17.00;100686.00;;;;5004224;28;20457;-85
2021/09/12 02:36:34;;;;;;;14.33;12.57;;;16.10;1.00;17.00;100752.00;;;;5004129;28;20578;-85
2021/09/12 02:39:02;;;;;;;24.00;12.20;;;16.10;1.00;17.00;100739.00;;;;5011427;28;20464;-85
2021/09/12 02:41:31;;;;;;;12.90;10.87;;;16.10;1.00;17.00;100739.00;;;;4999696;28;20463;-85
2021/09/12 02:43:59;;;;;;;18.83;11.50;;;16.10;1.00;17.00;100759.00;;;;5015227;28;20502;-83
2021/09/12 02:46:28;;;;;;;14.20;9.80;;;16.10;1.00;17.00;100739.00;;;;5033169;28;20558;-83
2021/09/12 02:48:56;;;;;;;10.40;9.40;;;16.10;1.00;17.00;100756.00;;;;5017259;28;20439;-83
2021/09/12 02:51:26;;;;;;;12.27;9.77;;;16.20;1.00;17.00;100749.00;;;;5017119;28;20468;-85
2021/09/12 02:53:54;;;;;;;11.43;9.70;;;16.20;1.00;17.10;100635.00;;;;5003622;28;20450;-85
2021/09/12 02:56:22;;;;;;;12.90;10.17;;;16.20;1.00;17.10;100742.00;;;;4994154;28;20478;-86
2021/09/12 02:58:51;;;;;;;15.17;10.80;;;16.40;1.00;17.10;100746.00;;;;4993947;28;20455;-85
2021/09/12 03:01:19;;;;;;;13.13;10.80;;;16.20;1.00;17.00;100729.00;;;;4994404;28;20442;-86
2021/09/12 03:03:48;;;;;;;17.43;11.40;;;16.20;1.00;17.00;100740.00;;;;4999550;28;20442;-86
2021/09/12 03:06:16;;;;;;;14.43;12.37;;;16.20;1.00;17.00;100721.00;;;;5005223;28;21023;-85
2021/09/12 03:08:46;;;;;;;13.60;10.90;;;16.10;1.00;16.80;100673.00;;;;5001242;28;20470;-84
2021/09/12 03:11:14;;;;;;;12.90;11.50;;;16.10;1.00;17.00;100750.00;;;;5008713;28;20488;-84
2021/09/12 03:13:43;;;;;;;12.73;11.20;;;16.10;1.00;17.00;100745.00;;;;4997434;28;20458;-85
2021/09/12 03:16:11;;;;;;;12.33;11.10;;;16.20;1.00;17.00;100744.00;;;;5001860;28;20488;-86
2021/09/12 03:18:40;;;;;;;14.27;12.40;;;16.20;1.00;17.00;100743.00;;;;5000279;28;20451;-86
2021/09/12 03:21:08;;;;;;;14.43;10.87;;;16.20;1.00;17.00;100707.00;;;;4995013;28;20451;-85
2021/09/12 03:23:36;;;;;;;14.73;11.10;;;16.20;1.00;17.00;100744.00;;;;4994829;28;20475;-86
2021/09/12 03:26:06;;;;;;;13.97;11.60;;;16.20;1.00;17.00;100739.00;;;;5020071;28;20477;-85
2021/09/12 03:28:34;;;;;;;15.30;11.60;;;16.20;1.00;17.00;100658.00;;;;5006970;28;20822;-85
2021/09/12 03:31:03;;;;;;;14.83;10.97;;;16.30;1.00;17.00;100732.00;;;;4995066;28;20546;-85
2021/09/12 03:33:32;;;;;;;17.73;12.43;;;16.20;1.00;17.00;100727.00;;;;4993683;28;20454;-86
2021/09/12 03:36:00;;;;;;;14.47;11.27;;;16.20;1.00;17.00;100732.00;;;;4994097;28;20477;-85
2021/09/12 03:38:28;;;;;;;13.77;11.70;;;16.20;1.00;17.00;100723.00;;;;5008031;28;20470;-86
2021/09/12 03:40:57;;;;;;;15.17;11.80;;;16.20;1.00;17.00;100700.00;;;;4993435;28;20492;-85
2021/09/12 03:43:27;;;;;;;13.50;11.50;;;16.10;1.00;17.00;100722.00;;;;5006164;28;20506;-85
2021/09/12 03:45:56;;;;;;;17.80;11.93;;;16.20;1.00;17.00;100727.00;;;;5005861;28;20474;-85
2021/09/12 03:48:25;;;;;;;22.47;13.00;;;16.10;1.00;17.00;100717.00;;;;4996692;28;20653;-85
2021/09/12 03:50:53;;;;;;;13.23;10.17;;;16.10;1.00;17.00;100722.00;;;;4994512;28;20547;-85
2021/09/12 03:53:22;;;;;;;15.70;11.10;;;16.10;1.00;16.90;100729.00;;;;4994502;28;20465;-83
2021/09/12 03:55:50;;;;;;;14.50;12.20;;;16.10;1.00;16.90;100705.00;;;;5012486;28;20473;-86
2021/09/12 03:58:19;;;;;;;12.80;10.43;;;16.10;1.00;16.90;100722.00;;;;4998467;28;20446;-86
2021/09/12 04:00:48;;;;;;;11.03;9.50;;;16.10;1.00;16.90;100704.00;;;;4999720;28;20505;-85
2021/09/12 04:03:17;;;;;;;13.07;11.10;;;16.10;1.00;16.90;100662.00;;;;4998861;28;20475;-85
2021/09/12 04:05:46;;;;;;;13.03;11.40;;;16.20;1.00;16.90;100704.00;;;;5003239;28;20434;-85
2021/09/12 04:08:14;;;;;;;16.33;11.37;;;16.10;1.00;16.90;100686.00;;;;5007645;28;20473;-83
2021/09/12 04:10:42;;;;;;;13.17;10.57;;;16.20;1.00;16.90;100728.00;;;;5008723;28;20494;-84
2021/09/12 04:13:11;;;;;;;14.77;12.20;;;16.10;1.00;16.90;100735.00;;;;5010806;28;20442;-84
2021/09/12 04:15:39;;;;;;;14.60;12.63;;;16.30;1.00;16.90;100733.00;;;;5016907;28;20458;-83
2021/09/12 04:18:09;;;;;;;15.23;12.17;;;16.10;1.00;16.90;100702.00;;;;5033883;28;20672;-82
2021/09/12 04:20:38;;;;;;;13.80;12.07;;;16.10;1.00;16.80;100721.00;;;;5018387;28;20554;-83
2021/09/12 04:23:06;;;;;;;15.40;12.37;;;16.20;1.00;16.90;100730.00;;;;5018377;28;20474;-83
2021/09/12 04:25:34;;;;;;;13.93;11.00;;;16.10;1.00;16.70;100732.00;;;;5018199;28;20466;-81
2021/09/12 04:28:02;;;;;;;14.20;11.70;;;16.10;1.00;16.90;100729.00;;;;5016884;28;20530;-83
2021/09/12 04:30:31;;;;;;;14.70;13.20;;;16.10;1.00;16.90;100729.00;;;;5033013;28;20512;-85
2021/09/12 04:32:59;;;;;;;14.97;11.73;;;16.20;1.00;16.90;100732.00;;;;5005208;28;20455;-83
2021/09/12 04:35:29;;;;;;;14.40;12.90;;;16.10;1.00;16.90;100731.00;;;;5020855;28;20431;-84
2021/09/12 04:37:57;;;;;;;16.13;12.90;;;16.10;1.00;16.90;100674.00;;;;5023160;28;20500;-85
2021/09/12 04:40:26;;;;;;;14.10;11.53;;;16.10;1.00;16.80;100697.00;;;;5013865;28;20529;-85
2021/09/12 04:42:54;;;;;;;17.67;11.37;;;16.20;1.00;17.00;100731.00;;;;4995744;28;20478;-86
2021/09/12 04:45:22;;;;;;;17.33;12.37;;;16.20;1.00;17.00;100732.00;;;;4998532;28;20517;-85
2021/09/12 04:47:51;;;;;;;16.13;11.63;;;16.20;1.00;17.00;100738.00;;;;5010829;28;20485;-85
2021/09/12 04:50:19;;;;;;;16.73;12.07;;;16.20;1.00;17.00;100711.00;;;;4998386;28;20447;-86
2021/09/12 04:52:49;;;;;;;15.77;11.77;;;16.30;1.00;17.00;100695.00;;;;4997233;28;21031;-85
2021/09/12 04:55:17;;;;;;;12.27;11.00;;;16.20;1.00;17.10;100738.00;;;;5019249;28;20473;-86
2021/09/12 04:57:46;;;;;;;13.40;11.97;;;16.30;1.00;17.10;100735.00;;;;5037354;28;20501;-83
2021/09/12 05:00:15;;;;;;;14.97;11.43;;;16.30;1.00;17.10;100731.00;;;;5031548;28;20600;-83
2021/09/12 05:02:43;;;;;;;15.00;12.10;;;16.30;1.00;17.10;100737.00;;;;4996971;28;20455;-84
2021/09/12 05:05:12;;;;;;;14.23;11.90;;;16.30;1.00;17.10;100722.00;;;;5024304;28;20824;-85
2021/09/12 05:07:41;;;;;;;14.43;13.03;;;16.30;1.00;17.10;100755.00;;;;5004525;28;20518;-84
2021/09/12 05:10:12;;;;;;;14.20;12.83;;;16.30;1.00;17.10;100691.00;;;;5015446;28;20545;-83
2021/09/12 05:12:40;;;;;;;15.53;13.00;;;16.30;1.00;17.10;100746.00;;;;4997626;28;20483;-84
2021/09/12 05:15:10;;;;;;;14.60;11.87;;;16.30;1.00;17.10;100747.00;;;;4998094;28;20457;-84
2021/09/12 05:17:38;;;;;;;13.90;12.43;;;16.30;1.00;17.00;100721.00;;;;4991302;28;20502;-84
2021/09/12 05:20:09;;;;;;;14.47;13.07;;;16.30;1.00;17.00;100749.00;;;;5011047;28;20459;-84
2021/09/12 05:22:38;;;;;;;11.40;10.20;;;16.20;1.00;16.80;100759.00;;;;4993356;28;20469;-85
2021/09/12 05:25:10;;;;;;;15.47;12.77;;;16.20;1.00;16.80;100759.00;;;;5003561;28;20477;-85
2021/09/12 05:27:39;;;;;;;15.90;11.80;;;16.10;1.00;16.80;100730.00;;;;5005509;28;20482;-85
2021/09/12 05:30:09;;;;;;;11.83;10.73;;;16.00;1.00;16.70;100751.00;;;;5001159;28;20451;-85
2021/09/12 05:32:38;;;;;;;12.77;10.90;;;16.00;1.00;16.60;100726.00;;;;5000846;28;20446;-84
2021/09/12 05:35:07;;;;;;;11.50;10.33;;;16.10;1.00;16.60;100756.00;;;;5003188;28;20459;-85
2021/09/12 05:37:35;;;;;;;9.97;9.07;;;15.90;1.00;16.50;100723.00;;;;5016032;28;20498;-87
2021/09/12 05:40:05;;;;;;;10.23;8.53;;;16.00;1.00;16.50;100765.00;;;;5017622;28;20474;-85
2021/09/12 05:42:35;;;;;;;10.20;9.30;;;15.90;1.00;16.50;100760.00;;;;5024452;28;20561;-85
2021/09/12 05:45:04;;;;;;;11.33;9.53;;;15.90;1.00;16.50;100744.00;;;;4999588;28;20486;-84
2021/09/12 05:47:32;;;;;;;11.07;9.53;;;15.90;1.00;16.50;100742.00;;;;5022026;28;20785;-83
2021/09/12 05:50:01;;;;;;;9.63;8.83;;;15.90;1.00;16.50;100750.00;;;;5016433;28;20531;-84
2021/09/12 05:52:29;;;;;;;10.77;9.77;;;15.90;1.00;16.60;100672.00;;;;5016530;28;20487;-84
2021/09/12 05:54:58;;;;;;;10.63;9.47;;;15.90;1.00;16.60;100623.00;;;;5012220;28;20454;-84
2021/09/12 05:57:26;;;;;;;10.13;9.00;;;15.90;1.00;16.80;100722.00;;;;5000633;28;20494;-85
2021/09/12 05:59:56;;;;;;;11.97;9.40;;;16.00;1.00;16.90;100757.00;;;;4998942;28;20458;-84
2021/09/12 06:02:25;;;;;;;10.23;9.20;;;16.10;1.00;17.00;100766.00;;;;4990647;28;20506;-84
2021/09/12 06:04:53;;;;;;;10.40;9.17;;;16.10;1.00;17.10;100708.00;;;;5014049;28;20463;-84
2021/09/12 06:07:22;;;;;;;10.40;9.20;;;16.20;1.00;17.10;100759.00;;;;5000694;28;20494;-85
2021/09/12 06:09:50;;;;;;;9.47;8.40;;;16.20;1.00;17.20;100767.00;;;;5001344;28;20509;-84
2021/09/12 06:12:19;;;;;;;9.30;8.40;;;16.30;1.00;17.30;100703.00;;;;5002411;28;20482;-84
2021/09/12 06:14:47;;;;;;;9.40;8.07;;;16.40;1.00;17.30;100768.00;;;;5030342;28;20454;-84
2021/09/12 06:17:17;;;;;;;8.80;7.90;;;16.40;1.00;17.20;100770.00;;;;5008533;28;20493;-85
2021/09/12 06:19:45;;;;;;;9.93;9.03;;;16.40;1.00;17.20;100779.00;;;;5032623;28;20493;-85
2021/09/12 06:22:14;;;;;;;10.50;9.50;;;16.50;1.00;17.40;100773.00;;;;5011648;28;20451;-84
2021/09/12 06:24:43;;;;;;;10.30;7.80;;;16.60;1.00;17.50;100775.00;;;;4993633;28;20995;-83
2021/09/12 06:27:11;;;;;;;8.03;7.33;;;16.70;1.00;17.50;100777.00;;;;5001290;28;20486;-84
2021/09/12 06:29:40;;;;;;;9.43;8.20;;;16.80;1.00;17.60;100721.00;;;;5008095;28;20986;-85
2021/09/12 06:32:09;;;;;;;8.47;7.33;;;16.80;1.00;17.70;100779.00;;;;5003465;28;20501;-85
2021/09/12 06:34:38;;;;;;;9.00;8.20;;;16.80;1.00;17.70;100778.00;;;;5001543;28;20461;-85
2021/09/12 06:37:07;;;;;;;10.33;7.63;;;16.90;1.00;17.80;100649.00;;;;5005462;28;20455;-85
2021/09/12 06:39:35;;;;;;;7.70;6.77;;;17.10;1.00;17.70;100776.00;;;;5000217;28;20564;-83
2021/09/12 06:42:04;;;;;;;11.10;7.10;;;17.00;1.00;17.90;100774.00;;;;4999849;28;20470;-84
2021/09/12 06:44:33;;;;;;;8.27;7.47;;;17.00;1.00;18.00;100780.00;;;;5005412;28;20486;-83
2021/09/12 06:47:01;;;;;;;9.17;8.27;;;17.20;1.00;17.80;100726.00;;;;5000495;28;20495;-82
2021/09/12 06:49:29;;;;;;;9.40;8.10;;;17.20;1.00;17.90;100755.00;;;;4999266;28;20542;-83
2021/09/12 06:52:00;;;;;;;8.10;7.30;;;17.30;1.00;18.20;100784.00;;;;5023156;28;20441;-84
2021/09/12 06:54:28;;;;;;;7.90;7.20;;;17.40;1.00;18.30;100756.00;;;;5014839;28;20454;-84
2021/09/12 06:56:57;;;;;;;12.70;6.50;;;17.40;1.00;18.30;100722.00;;;;5012500;28;20463;-84
2021/09/12 06:59:25;;;;;;;8.63;6.70;;;17.50;1.00;18.40;100776.00;;;;5016746;28;20466;-83
2021/09/12 07:01:54;;;;;;;10.13;7.20;;;17.60;1.00;18.40;100765.00;;;;5007343;28;20450;-84
2021/09/12 07:04:22;;;;;;;6.77;6.13;;;17.70;1.00;18.50;100787.00;;;;4994908;28;20552;-83
2021/09/12 07:06:51;;;;;;;10.10;7.00;;;17.70;1.00;18.60;100706.00;;;;5021286;28;20835;-84
2021/09/12 07:09:21;;;;;;;7.10;6.40;;;17.80;1.00;18.60;100759.00;;;;5005335;28;20445;-83
2021/09/12 07:11:49;;;;;;;8.07;6.20;;;17.90;1.00;18.70;100788.00;;;;5012059;28;20442;-84
2021/09/12 07:14:37;;;;;;;7.07;6.37;;;17.90;1.00;18.80;100790.00;;;;5009393;28;20451;-84
2021/09/12 07:17:07;;;;;;;7.10;6.40;;;18.00;1.00;18.70;100703.00;;;;5020252;28;20617;-83
2021/09/12 07:19:35;;;;;;;7.50;5.90;;;18.10;1.00;18.80;100738.00;;;;5005340;28;20497;-82
2021/09/12 07:22:04;;;;;;;8.57;6.83;;;18.30;1.00;18.80;100786.00;;;;5002700;28;20945;-82
2021/09/12 07:24:34;;;;;;;7.50;6.33;;;18.20;1.00;18.90;100757.00;;;;5000138;28;20474;-84
2021/09/12 07:27:02;;;;;;;7.20;6.20;;;18.30;1.00;19.10;100775.00;;;;5010097;28;20538;-84
2021/09/12 07:29:32;;;;;;;8.60;7.33;;;18.40;1.00;19.10;100789.00;;;;5010781;28;20458;-84
2021/09/12 07:32:01;;;;;;;5.97;5.47;;;18.60;1.00;19.20;100793.00;;;;5021842;28;20450;-84
2021/09/12 07:34:29;;;;;;;7.00;6.33;;;18.50;1.00;19.10;100756.00;;;;5027930;28;20517;-84
2021/09/12 07:36:58;;;;;;;6.83;5.87;;;18.50;1.00;19.20;100727.00;;;;5025965;28;20493;-85
2021/09/12 07:39:26;;;;;;;6.90;6.20;;;18.50;1.00;19.30;100744.00;;;;5020815;28;20473;-85
2021/09/12 07:41:57;;;;;;;7.43;6.00;;;18.60;1.00;19.30;100782.00;;;;5020054;28;20520;-82
2021/09/12 07:44:25;;;;;;;6.20;5.60;;;18.70;1.00;19.40;100764.00;;;;5012151;28;20466;-84
2021/09/12 07:46:54;;;;;;;6.13;5.53;;;18.80;1.00;19.40;100767.00;;;;5000961;28;20536;-82
2021/09/12 07:49:22;;;;;;;7.23;6.20;;;18.80;1.00;19.50;100768.00;;;;5009127;28;20500;-82
2021/09/12 07:51:51;;;;;;;6.77;6.10;;;18.90;1.00;19.50;100797.00;;;;5019944;28;20527;-83
2021/09/12 07:54:19;;;;;;;6.20;5.60;;;18.90;1.00;19.60;100799.00;;;;5004646;28;20463;-83
2021/09/12 07:56:47;;;;;;;6.27;5.60;;;18.90;1.00;19.60;100791.00;;;;5003901;28;20482;-82
2021/09/12 07:59:17;;;;;;;6.20;5.60;;;19.00;1.00;19.70;100795.00;;;;5006459;28;20459;-83
2021/09/12 08:01:46;;;;;;;5.50;5.00;;;19.10;1.00;19.80;100783.00;;;;5009634;28;20454;-81
2021/09/12 08:04:14;;;;;;;7.90;6.47;;;19.20;1.00;19.90;100797.00;;;;5004298;28;20446;-83
2021/09/12 08:06:43;;;;;;;5.27;4.77;;;19.30;1.00;19.90;100802.00;;;;5004110;28;20546;-83
2021/09/12 08:09:12;;;;;;;6.30;4.93;;;19.40;1.00;20.00;100761.00;;;;5002903;28;20465;-80
2021/09/12 08:11:40;;;;;;;5.70;5.10;;;19.50;1.00;20.10;100798.00;;;;5002819;28;20461;-82
2021/09/12 08:14:09;;;;;;;5.20;4.80;;;19.60;1.00;20.10;100801.00;;;;5002419;28;20465;-83
2021/09/12 08:16:38;;;;;;;5.47;4.97;;;19.70;1.00;20.20;100804.00;;;;5019574;28;20481;-82
2021/09/12 08:19:07;;;;;;;5.43;4.73;;;19.70;1.00;20.30;100768.00;;;;5002482;28;20462;-82
2021/09/12 08:21:40;;;;;;;4.30;4.00;;;19.80;1.00;20.30;100802.00;;;;5005390;28;20450;-83
2021/09/12 08:24:09;;;;;;;7.43;4.57;;;19.90;1.00;20.40;100797.00;;;;5013786;28;20459;-83
2021/09/12 08:26:38;;;;;;;4.83;4.43;;;19.90;1.00;20.30;100782.00;;;;5005097;28;20487;-82
2021/09/12 08:29:07;;;;;;;5.37;4.20;;;20.00;1.00;20.50;100806.00;;;;5007566;28;20518;-82
2021/09/12 08:31:35;;;;;;;4.73;4.33;;;20.10;1.00;20.60;100795.00;;;;5020186;28;20457;-81
2021/09/12 08:34:05;;;;;;;4.73;4.33;;;20.30;1.00;20.60;100778.00;;;;5004441;28;20450;-83
2021/09/12 08:36:34;;;;;;;4.60;4.20;;;20.30;1.00;20.70;100806.00;;;;5005242;28;20466;-82
2021/09/12 08:39:02;;;;;;;4.10;3.70;;;20.30;1.00;20.70;100800.00;;;;5008991;28;20829;-83
2021/09/12 08:41:31;;;;;;;4.53;4.13;;;20.40;1.00;20.70;100791.00;;;;5008140;28;20550;-82
2021/09/12 08:44:00;;;;;;;4.37;3.70;;;20.30;1.00;20.50;100751.00;;;;5002601;28;20466;-82
2021/09/12 08:46:29;;;;;;;4.00;3.70;;;20.20;1.00;20.60;100808.00;;;;5003401;28;20482;-83
2021/09/12 08:48:58;;;;;;;4.40;4.00;;;20.20;1.00;20.70;100804.00;;;;5000970;28;20454;-83
2021/09/12 08:51:28;;;;;;;4.53;4.07;;;20.30;1.00;20.80;100798.00;;;;5002640;28;20482;-82
2021/09/12 08:53:56;;;;;;;3.43;3.13;;;20.40;1.00;20.80;100802.00;;;;5013619;28;20433;-81
2021/09/12 08:56:25;;;;;;;4.10;3.30;;;20.50;1.00;20.90;100809.00;;;;5014064;28;20466;-82
2021/09/12 08:58:53;;;;;;;4.30;3.70;;;20.60;1.00;21.00;100795.00;;;;5017822;28;20446;-83
2021/09/12 09:01:32;;;;;;;6.30;3.23;;;20.70;1.00;21.00;100811.00;;;;5009033;28;20486;-82
2021/09/12 09:04:03;;;;;;;3.37;3.07;;;20.90;1.00;21.10;100812.00;;;;5016112;28;20450;-81
2021/09/12 09:06:38;;;;;;;3.97;3.40;;;20.90;1.00;21.10;100805.00;;;;5017688;28;20479;-82
2021/09/12 09:09:09;;;;;;;4.60;2.90;;;20.90;1.00;21.10;100804.00;;;;5007224;28;20434;-82
2021/09/12 09:11:39;;;;;;;3.40;3.10;;;20.90;1.00;21.20;100805.00;;;;5003305;28;20491;-83
2021/09/12 09:14:17;;;;;;;3.33;3.03;;;21.00;1.00;21.20;100805.00;;;;5001173;28;20447;-81
2021/09/12 09:16:47;;;;;;;3.60;3.20;;;21.10;1.00;21.30;100802.00;;;;5003051;28;20541;-83
2021/09/12 09:19:17;;;;;;;4.50;2.83;;;21.20;1.00;21.40;100797.00;;;;5004167;28;20526;-82
2021/09/12 09:21:49;;;;;;;5.50;3.10;;;21.20;1.00;21.40;100803.00;;;;5017589;28;20482;-83
2021/09/12 09:24:22;;;;;;;3.33;2.93;;;21.30;1.00;21.50;100794.00;;;;5003819;28;20443;-82
2021/09/12 09:26:53;;;;;;;3.90;2.87;;;21.40;1.00;21.50;100792.00;;;;5002997;28;20517;-82
2021/09/12 09:29:25;;;;;;;4.87;4.00;;;21.40;1.00;21.40;100797.00;;;;4998567;28;20450;-82
2021/09/12 09:32:04;;;;;;;5.03;3.47;;;21.40;1.00;21.60;100787.00;;;;5000913;28;20571;-82
2021/09/12 09:34:34;;;;;;;5.40;2.90;;;21.50;1.00;21.70;100780.00;;;;4998423;28;20521;-82
2021/09/12 09:37:13;;;;;;;4.13;2.93;;;21.60;1.00;21.60;100780.00;;;;5001222;28;20582;-83
2021/09/12 09:39:44;;;;;;;3.27;2.93;;;21.60;1.00;21.70;100789.00;;;;4998591;28;20455;-82
2021/09/12 09:42:34;;;;;;;5.47;3.10;;;21.60;1.00;21.80;100782.00;;;;4985690;28;21027;-82
2021/09/12 09:45:05;;;;;;;3.13;2.80;;;21.70;1.00;21.90;100785.00;;;;4998405;28;20550;-81
2021/09/12 09:47:34;;;;;;;2.77;2.50;;;21.80;1.00;21.90;100780.00;;;;5000268;28;20543;-83
2021/09/12 09:50:09;;;;;;;5.57;5.00;;;21.90;1.00;22.00;100793.00;;;;5011149;28;20447;-82
2021/09/12 09:52:40;;;;;;;4.20;3.30;;;22.00;1.00;22.00;100765.00;;;;5003697;28;20446;-83
2021/09/12 09:55:14;;;;;;;2.60;2.40;;;22.10;1.00;22.20;100787.00;;;;5019044;28;20832;-83
2021/09/12 09:57:44;;;;;;;2.80;2.50;;;22.20;1.00;22.30;100766.00;;;;5003552;28;20458;-83
2021/09/12 10:00:15;;;;;;;2.80;2.50;;;22.20;1.00;22.40;100773.00;;;;5015261;28;20477;-82
2021/09/12 10:02:44;;;;;;;2.73;2.53;;;22.30;1.00;22.50;100770.00;;;;5001776;28;20458;-81
2021/09/12 10:05:16;;;;;;;3.07;2.20;;;22.50;1.00;22.60;100763.00;;;;4997058;28;20483;-82
2021/09/12 10:07:46;;;;;;;3.20;2.30;;;22.70;1.00;22.80;100761.00;;;;4999743;28;20565;-81
2021/09/12 10:10:17;;;;;;;4.20;2.33;;;22.90;1.00;22.90;100760.00;;;;5002153;28;20446;-82
2021/09/12 10:12:49;;;;;;;6.30;5.70;;;23.00;1.00;23.00;100763.00;;;;5002731;28;20967;-81
2021/09/12 10:15:23;;;;;;;3.03;1.80;;;23.00;1.00;23.00;100767.00;;;;5012745;28;20517;-81
2021/09/12 10:17:53;;;;;;;1.77;1.63;;;23.10;1.00;22.70;100771.00;;;;4995994;28;20546;-84
2021/09/12 10:20:25;;;;;;;3.13;2.10;;;22.70;1.00;22.50;100772.00;;;;5006245;28;20474;-82
2021/09/12 10:22:58;;;;;;;2.60;2.17;;;22.30;1.00;22.60;100738.00;;;;5014299;28;20465;-81
2021/09/12 10:25:28;;;;;;;3.30;3.00;;;22.40;1.00;22.90;100749.00;;;;5004708;28;20983;-81
2021/09/12 10:28:03;;;;;;;3.40;2.87;;;22.70;1.00;22.80;100765.00;;;;5007725;28;20463;-81
2021/09/12 10:30:37;;;;;;;2.63;2.33;;;22.70;1.00;22.60;100753.00;;;;5025155;28;20457;-81
2021/09/12 10:33:23;;;;;;;4.63;2.13;;;22.50;1.00;23.00;100722.00;;;;5012763;28;20522;-81
2021/09/12 10:36:02;;;;;;;2.27;1.90;;;22.80;1.00;22.90;100744.00;;;;5008497;28;20825;-81
2021/09/12 10:38:34;;;;;;;3.30;2.47;;;22.60;1.00;22.70;100755.00;;;;5009875;28;20456;-82
2021/09/12 10:41:17;;;;;;;3.33;2.30;;;22.40;1.00;22.60;100750.00;;;;5006184;28;20458;-81
2021/09/12 10:43:52;;;;;;;2.60;2.20;;;22.20;1.00;23.00;100748.00;;;;5025168;28;20495;-80
2021/09/12 10:46:27;;;;;;;2.40;2.10;;;22.70;1.00;23.10;100710.00;;;;5014308;28;20493;-81
2021/09/12 10:49:11;;;;;;;3.50;2.10;;;22.90;1.00;23.50;100705.00;;;;5016493;28;20469;-82
2021/09/12 10:51:41;;;;;;;2.73;1.90;;;23.30;1.00;23.30;100751.00;;;;5004536;28;20437;-82
2021/09/12 10:54:11;;;;;;;2.60;2.40;;;23.20;1.00;23.10;100747.00;;;;5013560;28;20450;-80
2021/09/12 10:56:40;;;;;;;3.13;2.53;;;23.00;1.00;23.60;100736.00;;;;5014983;28;20490;-81
2021/09/12 10:59:15;;;;;;;2.40;1.90;;;23.30;1.00;23.90;100731.00;;;;5010886;28;20446;-80